Harrisburg, Oregon
Current Conditions -  °F | °C
As of 1:39 AM on Saturday 25 Oct 2014 (Local Time) from KEUG Reporting Station
Haze Haze  
Wind Chill: 51°   Ceiling: 300
Heat Index: 51°   Visibility: 1.7mi
Dew Point: 50°   Wind: 6mph
Humidity: 96%   Direction: 10°N
Pressure: 29.62"   Gusts: NA
Location:  44.27°N, 123.17°W
Report Text: KEUG 250839Z AUTO 01005KT 1 3/4SM BR OVC003 11/10 A2962 RMK AO2 T01060100
Loading
Personal Weather Stations






























Interactive Weather Map
Tropical Storm Tracking
New forecast layout! Learn more

10-Day Weather Forecast

Advertisements
Track Severe Weather on mobile